URWAURSS

Guest
Details From URWA - Astrakhan
To URSS - Sochi
Flight Number -
Tags Generated
Created
Modified
Stats Distance 385 nm / 714 km
Max Altitude 0 ft / 0 m
Waypoints 3
Social Downloads 6
Likes 0
Share VATSIM

Download

Looking for another format? Having issues loading an existing format? Contact us
Advertisement - Login to hide

Notes

Generated

Route

URWA AD URSS

ID Type Via Altitude Latitude Longitude Leg Dist Tot Dist Heading (true) Name
O URWA APT - 0 ft / 0 m 46.28171˚ 47.99744˚ - 0 nm - -
AD NDB - 0 ft / 0 m 43.41500˚ 39.93167˚ 383 nm 383 nm 246° / 241° SOCHI NDB
O URSS APT - 0 ft / 0 m 43.43576˚ 39.94578˚ 1 nm 385 nm 26° / 26° Sochi

Altitude Profile

Advertisement - Login to hide

Weather


0- 5 10 15 20 25 30 35+ Temperature / ° C

Clouds and Precipitation
Forecast for 2017-12-14 06:00 UTC. Updated 2 hours ago

Ground ~20,000 ft ~40,000 ft Winds

URWA

Details ICAO URWA (ASF)
Name ASTRAKHAN
Region Russia
Timezone Europe/Volgograd (UTC+3.0)
Stats Elevation -65 ft / -20 m (AMSL)
Location 46.280732° 48.006186°
Runways 2
Magnetic Variation 8.390° E

METAR

URWA 140230Z 11006MPS CAVOK M01/M02 Q1029 R09/010060 NOSIG RMK QFE773/1031

Decode

TAF

Not found

Departure Runways

ID Width Length Bearing (true) Bearing (mag) Surface Threshold Offset Overrun Length
09 138 ft / 42 m 8,181 ft / 2,494 m 96.01° 87.62° Concrete 0 ft / 0 m 165 ft / 50 m
11 330 ft / 101 m 5,083 ft / 1,549 m 120.87° 112.48° Grass 0 ft / 0 m 0 ft / 0 m
27 138 ft / 42 m 8,181 ft / 2,494 m 276.03° 267.64° Concrete 0 ft / 0 m 165 ft / 50 m
29 330 ft / 101 m 5,083 ft / 1,549 m 300.88° 292.49° Grass 0 ft / 0 m 0 ft / 0 m

URSS

Details ICAO URSS (AER)
Name Sochi
Region Russia
Timezone Europe/Moscow (UTC+3.0)
Stats Elevation 89 ft / 27 m (AMSL)
Location 43.444749° 39.947302°
Runways 2
Magnetic Variation 6.962° E

METAR

URSS 140230Z 07004MPS 9999 NSC 06/M02 Q1017 R06/090070 R02/090070 NOSIG RMK R02/05005MPS QFE762

Decode

TAF

TAF URSS 140158Z 1403/1503 06006MPS 9999 NSC TEMPO 1403/1408 03007G12MPS BECMG 1409/1410 VRB01MPS BKN100 BECMG 1414/1415 05006MPS

Decode

Destination Runways

ID Width Length Bearing (true) Bearing (mag) Surface Threshold Offset Overrun Length
02 161 ft / 49 m 7,267 ft / 2,215 m 28.98° 22.02° Concrete 0 ft / 0 m 0 ft / 0 m
06 164 ft / 50 m 9,531 ft / 2,905 m 64.90° 57.94° Concrete 262 ft / 80 m 0 ft / 0 m
20 161 ft / 49 m 7,267 ft / 2,215 m 208.99° 202.03° Concrete 0 ft / 0 m 0 ft / 0 m
24 164 ft / 50 m 9,531 ft / 2,905 m 244.92° 237.96° Concrete 0 ft / 0 m 0 ft / 0 m

Approach Navaids

Runway Type Ident Frequency Range Bearing (true) Bearing (mag) Slope Elevation
02 Localiser IAD 110.50 MHz 18 nm / 33 km 30.95° 23.99° - 89 ft / 27 m (AMSL)
02 Glidescope IAD 110.50 MHz 10 nm / 19 km 28.98° 22.02° 2.80° 89 ft / 27 m (AMSL)
06 Localiser ISO 111.10 MHz 18 nm / 33 km 65.82° 58.86° - 89 ft / 27 m (AMSL)
06 Glidescope ISO 111.10 MHz 10 nm / 19 km 64.91° 57.95° 2.80° 89 ft / 27 m (AMSL)

Popular Alternatives